Richard B Russell Airport Rome US
ICAO: KRMG
IATA: RMG
Category: Medium
Scheduled Services: No

Elevation: 644 ft
TransAlt. 18000 ft.

Airport Communications:
ASOS:119.925
ATLANTA CNTR:133.8
CTAF/UNICOM:123

KRMG Zoom In..

If you have problems with the map follow the link
https://www.worldairports.se/pages/airport.php?
ICAO=KRMG

Runways:

(A) RW 01 length 6006 ft width 150 ft
ILS 111.15 / hdg 7

(B) RW 07 length 4495 ft width 100 ft
---- / hdg 72

(C) RW 19 length 6006 ft width 150 ft
---- / hdg 187

(D) RW 25 length 4495 ft width 100 ft
---- / hdg 252

Location; KRMG
Day. 13 / Time. 21.53 Zulu
* Altimeter: 29.88
* Temperature: 07° c. 44.6°f.
* Wind from: 000° Speed 00 kn.
Dewpoint: 06° c.
Visibility: 3 Statute Miles.
Clouds: Overcast 700 ft.
Conditions: Mist.

KRMG 132153Z AUTO 00000KT 3SM BR OVC007 07/06 A2988 RMK AO2 CIG 004V010 SLP118 T00720061


Wind - Calm.

 
 
jpsmedia worldairports.se 2019   terms of use